Time;durP1;ratioP1;P1;durP2;ratioP2;P2;SDS_P1;SDS_P2;PMS_P1;PMS_P2;Temp;Humidity;BMP_temperature;BMP_pressure;BME280_temperature;BME280_humidity;BME280_pressure;Samples;Min_cycle;Max_cycle;Signal;HPM_P1;HPM_P2
2022/08/02 00:00:58;;;;;;;4.80;1.02;;;13.50;90.40;;;;;;5038805;28;20104;-79
2022/08/02 00:03:26;;;;;;;1.83;0.80;;;13.40;90.20;;;;;;5040177;28;20033;-76
2022/08/02 00:05:54;;;;;;;2.95;0.80;;;13.40;90.20;;;;;;5038526;28;20100;-79
2022/08/02 00:08:22;;;;;;;3.90;0.82;;;13.50;90.30;;;;;;5023720;28;20036;-80
2022/08/02 00:10:49;;;;;;;3.72;0.80;;;13.60;89.90;;;;;;5038095;28;20021;-77
2022/08/02 00:13:17;;;;;;;3.35;0.70;;;13.70;89.60;;;;;;5041015;28;20029;-73
2022/08/02 00:15:44;;;;;;;3.33;0.73;;;13.70;89.90;;;;;;5040439;28;20474;-77
2022/08/02 00:18:11;;;;;;;5.72;1.17;;;13.80;88.90;;;;;;5041437;28;20063;-73
2022/08/02 00:20:39;;;;;;;5.22;0.60;;;13.80;89.20;;;;;;5041275;28;20017;-74
2022/08/02 00:23:06;;;;;;;2.50;0.77;;;13.80;89.50;;;;;;5055455;28;20793;-73
2022/08/02 00:25:33;;;;;;;3.00;1.20;;;13.80;88.40;;;;;;5060032;28;20024;-77
2022/08/02 00:28:01;;;;;;;5.45;2.15;;;13.90;88.90;;;;;;5059288;28;20073;-72
2022/08/02 00:30:28;;;;;;;3.42;0.85;;;14.00;88.40;;;;;;5047580;28;20469;-72
2022/08/02 00:32:55;;;;;;;5.00;0.82;;;14.00;88.20;;;;;;5039254;28;20700;-74
2022/08/02 00:35:23;;;;;;;3.58;0.70;;;14.20;87.30;;;;;;5051289;28;20013;-71
2022/08/02 00:37:50;;;;;;;3.50;0.60;;;14.20;86.40;;;;;;5039613;28;20025;-71
2022/08/02 00:40:22;;;;;;;6.43;1.73;;;14.30;86.00;;;;;;5041239;28;20017;-73
2022/08/02 00:43:09;;;;;;;;;;;14.30;85.80;;;;;;5040229;28;20238;-70
2022/08/02 00:45:38;;;;;;;3.38;0.98;;;14.40;86.40;;;;;;5030072;28;19917;-74
2022/08/02 00:48:07;;;;;;;4.35;0.77;;;14.40;86.80;;;;;;5024464;28;20104;-77
2022/08/02 00:50:36;;;;;;;4.47;1.23;;;14.60;86.30;;;;;;5021719;28;20033;-84
2022/08/02 00:53:04;;;;;;;4.32;0.80;;;14.60;86.60;;;;;;5038146;28;20036;-74
2022/08/02 00:55:38;;;;;;;4.20;0.73;;;14.60;84.90;;;;;;5040753;28;20056;-78
2022/08/02 00:58:07;;;;;;;4.57;0.88;;;14.60;85.50;;;;;;5024232;28;20049;-75
2022/08/02 01:00:34;;;;;;;4.43;0.95;;;14.70;85.90;;;;;;5030960;28;20474;-77
2022/08/02 01:03:01;;;;;;;2.80;1.02;;;14.80;86.70;;;;;;5016504;28;20033;-81
2022/08/02 01:05:28;;;;;;;3.10;0.77;;;14.80;85.60;;;;;;5020614;28;20017;-78
2022/08/02 01:07:56;;;;;;;4.18;0.95;;;14.90;85.70;;;;;;5018457;28;20380;-73
2022/08/02 01:10:24;;;;;;;2.95;0.70;;;15.00;85.00;;;;;;5021278;28;20021;-81
2022/08/02 01:12:51;;;;;;;1.42;0.70;;;15.00;85.20;;;;;;5021013;28;20435;-72
2022/08/02 01:15:19;;;;;;;2.42;0.95;;;15.10;85.00;;;;;;5019589;28;20021;-73
2022/08/02 01:18:01;;;;;;;3.88;0.70;;;15.30;84.50;;;;;;5020711;28;20054;-73
2022/08/02 01:21:12;;;;;;;4.80;1.08;;;15.30;84.60;;;;;;5020335;28;20017;-73
2022/08/02 01:24:16;;;;;;;2.72;0.80;;;15.40;83.50;;;;;;5022591;28;20042;-76
2022/08/02 01:27:19;;;;;;;2.22;1.10;;;15.50;83.00;;;;;;5020508;28;20026;-74
2022/08/02 01:29:51;;;;;;;3.33;0.98;;;15.70;82.80;;;;;;5020257;28;20112;-73
2022/08/02 01:32:24;;;;;;;4.43;1.00;;;15.70;81.90;;;;;;5033753;28;20777;-74
2022/08/02 01:34:58;;;;;;;2.08;0.80;;;15.70;82.20;;;;;;5019885;28;20045;-77
2022/08/02 01:37:48;;;;;;;5.25;1.25;;;15.80;80.10;;;;;;5018711;28;20034;-73
2022/08/02 01:40:25;;;;;;;4.80;1.30;;;15.90;81.00;;;;;;5018007;28;20022;-75
2022/08/02 01:42:56;;;;;;;5.85;0.90;;;16.00;80.80;;;;;;5019602;28;20063;-73
2022/08/02 01:45:26;;;;;;;2.25;0.80;;;16.10;81.30;;;;;;5018551;28;20087;-75
2022/08/02 01:47:55;;;;;;;3.97;0.80;;;16.20;79.40;;;;;;5037492;28;20071;-73
2022/08/02 01:50:26;;;;;;;4.47;1.10;;;16.40;80.30;;;;;;5032229;28;20521;-76
2022/08/02 01:52:57;;;;;;;1.92;0.85;;;16.60;78.90;;;;;;5019645;28;20060;-72
2022/08/02 01:55:55;;;;;;;2.78;1.00;;;16.70;78.60;;;;;;5017097;28;20346;-72
2022/08/02 01:58:34;;;;;;;1.65;0.70;;;16.90;79.10;;;;;;5076332;27;20450;-71
2022/08/02 02:01:03;;;;;;;3.60;0.90;;;17.10;77.70;;;;;;5076135;28;20035;-73
2022/08/02 02:03:31;;;;;;;4.13;0.88;;;17.30;77.80;;;;;;5076299;28;20029;-73
2022/08/02 02:06:01;;;;;;;4.10;0.90;;;17.40;75.20;;;;;;5066161;28;20099;-72
2022/08/02 02:08:33;;;;;;;4.03;0.80;;;17.50;75.10;;;;;;5054887;28;20013;-72
2022/08/02 02:11:01;;;;;;;2.53;1.38;;;17.60;75.70;;;;;;5051441;28;20028;-73
2022/08/02 02:13:30;;;;;;;4.53;0.70;;;17.60;73.60;;;;;;5054546;28;20027;-71
2022/08/02 02:16:00;;;;;;;5.60;0.60;;;17.60;73.70;;;;;;5054896;28;20020;-72
2022/08/02 02:18:29;;;;;;;2.03;0.73;;;17.70;74.50;;;;;;5053567;28;20035;-72
2022/08/02 02:20:56;;;;;;;5.25;1.10;;;17.80;74.40;;;;;;5055444;28;20029;-72
2022/08/02 02:23:24;;;;;;;3.05;0.90;;;17.90;73.40;;;;;;5053263;28;20020;-78
2022/08/02 02:25:53;;;;;;;2.63;0.60;;;18.00;73.50;;;;;;5056588;28;20024;-71
2022/08/02 02:28:31;;;;;;;2.20;0.60;;;18.00;72.40;;;;;;5053445;28;20052;-72
2022/08/02 02:31:11;;;;;;;9.13;1.27;;;18.00;72.80;;;;;;5054945;28;20622;-75
2022/08/02 02:33:46;;;;;;;3.83;0.70;;;18.20;73.60;;;;;;5052873;28;20024;-73
2022/08/02 02:36:16;;;;;;;4.05;1.45;;;18.30;72.90;;;;;;5052138;28;20035;-74
2022/08/02 02:38:44;;;;;;;7.53;1.05;;;18.70;73.70;;;;;;5054698;28;20108;-73
2022/08/02 02:41:13;;;;;;;6.22;0.82;;;19.10;71.80;;;;;;5052454;28;20096;-73
2022/08/02 02:43:41;;;;;;;3.15;0.90;;;19.40;70.70;;;;;;5055361;28;20075;-74
2022/08/02 02:46:11;;;;;;;6.35;0.73;;;19.60;69.80;;;;;;5054113;28;20025;-73
2022/08/02 02:48:39;;;;;;;2.85;0.93;;;19.80;69.60;;;;;;5054961;28;20123;-81
2022/08/02 02:51:07;;;;;;;3.00;0.80;;;19.70;68.90;;;;;;5054994;28;20510;-76
2022/08/02 02:53:35;;;;;;;3.63;0.95;;;20.00;68.40;;;;;;5054784;28;20029;-75
2022/08/02 02:56:03;;;;;;;3.28;1.30;;;20.10;67.70;;;;;;5054456;28;20025;-71
2022/08/02 02:58:32;;;;;;;2.92;0.60;;;20.30;66.60;;;;;;5052126;28;20086;-73
2022/08/02 03:03:45;;;;;;;5.50;1.10;;;20.60;66.00;;;;;;5073385;28;20495;-72
2022/08/02 03:06:13;;;;;;;3.30;0.80;;;21.00;65.10;;;;;;5074878;28;20085;-76
2022/08/02 03:08:41;;;;;;;5.90;1.38;;;20.90;62.70;;;;;;5066061;28;20024;-72
2022/08/02 03:11:10;;;;;;;3.75;0.63;;;21.10;61.90;;;;;;5061562;28;20013;-71
2022/08/02 03:13:38;;;;;;;2.80;0.63;;;21.10;62.40;;;;;;5043911;28;20040;-69
2022/08/02 03:16:06;;;;;;;2.45;0.70;;;21.30;61.10;;;;;;5041088;28;20474;-71
2022/08/02 03:18:39;;;;;;;1.58;0.52;;;21.30;61.40;;;;;;5038642;28;20021;-70
2022/08/02 03:21:13;;;;;;;1.15;0.60;;;21.70;60.60;;;;;;5041392;28;20428;-74
2022/08/02 03:23:42;;;;;;;1.45;0.50;;;22.00;60.40;;;;;;5039585;28;20025;-71
2022/08/02 03:26:10;;;;;;;1.52;0.65;;;22.20;58.20;;;;;;5038680;28;20028;-75
2022/08/02 03:28:37;;;;;;;1.80;0.70;;;22.60;58.00;;;;;;5039058;28;20025;-74
2022/08/02 03:31:05;;;;;;;3.17;1.15;;;23.00;55.80;;;;;;5041106;28;20147;-72
2022/08/02 03:33:33;;;;;;;1.85;0.65;;;23.40;56.00;;;;;;5041102;28;20017;-73
2022/08/02 03:36:14;;;;;;;3.88;0.70;;;23.70;55.50;;;;;;5038764;28;20032;-73
2022/08/02 03:38:43;;;;;;;1.52;0.40;;;24.30;54.30;;;;;;5041234;28;20041;-73
2022/08/02 03:41:13;;;;;;;4.35;0.60;;;24.70;53.20;;;;;;5040556;28;20027;-74
2022/08/02 03:43:42;;;;;;;0.82;0.50;;;24.90;52.70;;;;;;5040805;28;20325;-73
2022/08/02 03:46:10;;;;;;;1.45;0.45;;;24.90;52.20;;;;;;5038091;28;20086;-76
2022/08/02 03:48:39;;;;;;;1.42;0.47;;;24.90;52.60;;;;;;5053435;28;20055;-74
2022/08/02 03:51:07;;;;;;;1.90;0.50;;;25.30;52.10;;;;;;5059697;28;20024;-75
2022/08/02 03:53:34;;;;;;;2.63;0.60;;;25.80;51.90;;;;;;5059340;28;20029;-76
2022/08/02 03:56:03;;;;;;;2.63;0.57;;;25.90;50.10;;;;;;5039522;28;20047;-74
2022/08/02 03:58:30;;;;;;;2.80;0.50;;;25.90;50.40;;;;;;5039107;28;20033;-75
2022/08/02 04:00:59;;;;;;;1.80;0.77;;;25.80;49.80;;;;;;5040444;28;20481;-74
2022/08/02 04:03:27;;;;;;;2.92;0.50;;;26.20;50.60;;;;;;5037250;28;20393;-77
2022/08/02 04:05:54;;;;;;;1.58;0.50;;;26.70;50.40;;;;;;5040420;28;20091;-76
2022/08/02 04:08:21;;;;;;;3.38;0.60;;;27.10;49.90;;;;;;5038254;28;20025;-74
2022/08/02 04:13:37;;;;;;;1.17;0.50;;;26.50;47.20;;;;;;5039149;28;20071;-72
2022/08/02 04:16:31;;;;;;;3.72;0.65;;;26.20;47.30;;;;;;5038730;28;20037;-74
2022/08/02 04:19:02;;;;;;;1.95;0.60;;;26.20;48.20;;;;;;5040448;28;20436;-71
2022/08/02 04:21:34;;;;;;;1.90;0.50;;;26.30;48.00;;;;;;5037270;28;20287;-72
2022/08/02 04:24:03;;;;;;;;;;;26.70;48.00;;;;;;5041226;28;20040;-74
2022/08/02 04:26:31;;;;;;;1.20;0.40;;;26.90;47.00;;;;;;5038260;28;20021;-71
2022/08/02 04:29:00;;;;;;;3.20;1.13;;;26.90;46.40;;;;;;5040538;28;20116;-73
2022/08/02 04:31:28;;;;;;;3.65;0.55;;;27.00;46.50;;;;;;5036816;28;20021;-72
2022/08/02 04:33:56;;;;;;;2.60;0.68;;;26.70;46.30;;;;;;5040626;28;20119;-74
2022/08/02 04:36:24;;;;;;;1.42;0.38;;;26.30;46.50;;;;;;5038541;28;20044;-73
2022/08/02 04:38:51;;;;;;;1.95;0.50;;;25.70;46.90;;;;;;5039221;28;20090;-72
2022/08/02 04:41:18;;;;;;;1.38;0.50;;;24.90;47.70;;;;;;5039306;28;20045;-72
2022/08/02 04:43:46;;;;;;;2.45;0.95;;;24.40;49.10;;;;;;5034870;28;20386;-73
2022/08/02 04:46:13;;;;;;;2.00;0.55;;;23.70;48.40;;;;;;5043104;28;20021;-74
2022/08/02 04:48:42;;;;;;;4.95;0.60;;;23.50;49.00;;;;;;5052457;28;20021;-78
2022/08/02 04:51:09;;;;;;;1.95;0.40;;;23.40;50.40;;;;;;5049303;28;20158;-75
2022/08/02 04:53:36;;;;;;;4.28;0.77;;;23.40;50.10;;;;;;5045236;28;20058;-81
2022/08/02 04:56:04;;;;;;;2.85;0.95;;;23.50;50.70;;;;;;5050096;28;20021;-78
2022/08/02 04:58:31;;;;;;;1.73;0.55;;;23.20;50.50;;;;;;5047607;28;20033;-74
2022/08/02 05:00:59;;;;;;;3.00;1.00;;;22.80;50.90;;;;;;5051881;28;20029;-74
2022/08/02 05:03:26;;;;;;;3.35;0.80;;;22.40;51.40;;;;;;5046327;28;20100;-74
2022/08/02 05:05:53;;;;;;;3.42;0.43;;;21.90;51.80;;;;;;5050896;28;20263;-74
2022/08/02 05:08:20;;;;;;;2.15;0.63;;;21.50;52.70;;;;;;5052057;28;20017;-73
2022/08/02 05:10:48;;;;;;;2.53;0.60;;;21.10;53.60;;;;;;5052927;28;20126;-79
2022/08/02 05:13:15;;;;;;;1.17;0.50;;;21.00;53.50;;;;;;5053808;28;20049;-77
2022/08/02 05:15:42;;;;;;;3.50;0.60;;;21.00;53.60;;;;;;5056243;28;20116;-73
2022/08/02 05:18:11;;;;;;;1.02;0.50;;;20.90;53.60;;;;;;5046244;28;20039;-73
2022/08/02 05:20:38;;;;;;;1.23;0.52;;;21.00;54.40;;;;;;5039295;28;20013;-78
2022/08/02 05:23:05;;;;;;;2.35;0.57;;;21.00;54.70;;;;;;5038981;28;20027;-76
2022/08/02 05:25:32;;;;;;;1.35;0.70;;;21.10;54.30;;;;;;5038496;28;20025;-82
2022/08/02 05:28:00;;;;;;;4.15;0.60;;;21.10;53.70;;;;;;5038968;28;20048;-73
2022/08/02 05:30:27;;;;;;;5.88;0.68;;;21.40;53.70;;;;;;5040453;28;20025;-87
2022/08/02 05:32:56;;;;;;;3.22;0.73;;;21.40;57.10;;;;;;5039869;28;20116;-84
2022/08/02 05:35:24;;;;;;;2.00;0.80;;;21.20;59.80;;;;;;5037766;28;20039;-74
2022/08/02 05:37:53;;;;;;;3.60;0.63;;;20.90;61.50;;;;;;5038892;28;20036;-85
2022/08/02 05:40:22;;;;;;;1.50;0.50;;;20.80;60.50;;;;;;5044388;28;20108;-81
2022/08/02 05:42:50;;;;;;;4.65;1.00;;;20.60;62.30;;;;;;5030113;28;20033;-74
2022/08/02 05:45:17;;;;;;;4.78;1.05;;;20.50;63.50;;;;;;5024325;28;20025;-76
2022/08/02 05:47:44;;;;;;;3.38;0.52;;;20.50;64.00;;;;;;5031656;28;20486;-84
2022/08/02 05:50:12;;;;;;;1.70;0.60;;;20.30;64.80;;;;;;5037063;28;20031;-78
2022/08/02 05:53:17;;;;;;;4.22;0.60;;;20.20;64.00;;;;;;5035888;28;20108;-74
2022/08/02 05:56:08;;;;;;;1.73;0.57;;;20.00;64.00;;;;;;5033456;28;20496;-74
2022/08/02 05:59:20;;;;;;;2.17;0.65;;;19.80;65.70;;;;;;5036607;28;20087;-75
2022/08/02 06:01:52;;;;;;;2.00;1.00;;;19.80;67.60;;;;;;5031734;28;20040;-72
2022/08/02 06:04:29;;;;;;;3.22;1.00;;;19.90;68.10;;;;;;5036768;28;20021;-75
2022/08/02 06:07:05;;;;;;;2.83;0.88;;;20.00;68.40;;;;;;5033253;28;20025;-73
2022/08/02 06:09:34;;;;;;;4.72;1.00;;;20.30;68.90;;;;;;5037401;28;20029;-72
2022/08/02 06:12:02;;;;;;;4.60;1.42;;;20.80;68.80;;;;;;5031434;28;20021;-72
2022/08/02 06:14:32;;;;;;;2.65;0.90;;;21.30;69.40;;;;;;5036773;28;20103;-73
2022/08/02 06:17:04;;;;;;;3.45;1.15;;;21.90;67.80;;;;;;5035180;28;20029;-73
2022/08/02 06:19:32;;;;;;;3.38;1.10;;;22.40;66.50;;;;;;5033972;28;20081;-72
2022/08/02 06:22:13;;;;;;;1.58;0.90;;;22.60;66.80;;;;;;5035280;28;20102;-73
2022/08/02 06:24:51;;;;;;;3.78;0.77;;;22.70;67.50;;;;;;5037723;28;20021;-73
2022/08/02 06:27:25;;;;;;;3.35;1.20;;;23.20;66.90;;;;;;5034945;28;20017;-73
2022/08/02 06:29:55;;;;;;;6.15;1.10;;;23.30;66.30;;;;;;5035732;28;20126;-76
2022/08/02 06:32:22;;;;;;;2.58;1.00;;;23.20;66.70;;;;;;5036959;28;20100;-81
2022/08/02 06:34:49;;;;;;;1.75;0.80;;;22.70;67.00;;;;;;5037892;28;20469;-73
2022/08/02 06:37:39;;;;;;;3.25;1.00;;;22.40;67.70;;;;;;5034418;28;20126;-77
2022/08/02 06:40:16;;;;;;;3.15;1.30;;;21.80;69.80;;;;;;5033220;28;20013;-77
2022/08/02 06:43:11;;;;;;;5.10;1.33;;;21.20;71.30;;;;;;5036330;28;20024;-79
2022/08/02 06:45:39;;;;;;;4.53;1.20;;;20.50;72.70;;;;;;5038848;28;20021;-74
2022/08/02 06:48:08;;;;;;;4.93;1.35;;;20.00;74.50;;;;;;5038963;28;20066;-77
2022/08/02 06:50:40;;;;;;;5.05;1.15;;;19.40;75.70;;;;;;5038855;28;20048;-74
2022/08/02 06:53:09;;;;;;;2.63;1.20;;;19.20;77.00;;;;;;5038713;28;20088;-76
2022/08/02 06:55:36;;;;;;;4.75;1.50;;;18.90;78.00;;;;;;5040902;28;20021;-83
2022/08/02 06:58:04;;;;;;;5.90;1.52;;;18.70;78.40;;;;;;5039385;28;20144;-75
2022/08/02 07:00:31;;;;;;;4.30;2.35;;;18.40;79.30;;;;;;5040153;28;20021;-77
2022/08/02 07:02:59;;;;;;;3.38;1.00;;;18.10;80.00;;;;;;5042245;28;20104;-75
2022/08/02 07:05:26;;;;;;;2.45;1.20;;;18.00;80.40;;;;;;5038802;28;20433;-75
2022/08/02 07:07:53;;;;;;;4.05;1.08;;;17.70;81.30;;;;;;5041025;28;20235;-76
2022/08/02 07:10:21;;;;;;;4.85;0.90;;;17.60;82.00;;;;;;5038620;28;20024;-74
2022/08/02 07:12:48;;;;;;;3.58;0.80;;;17.30;81.30;;;;;;5041660;28;20021;-74
2022/08/02 07:15:15;;;;;;;2.65;1.05;;;17.20;81.80;;;;;;5038744;28;20469;-73
2022/08/02 07:17:43;;;;;;;4.43;0.80;;;17.00;82.50;;;;;;5039465;28;20048;-79
2022/08/02 07:20:10;;;;;;;5.22;1.60;;;16.90;83.30;;;;;;5038191;28;20052;-74
2022/08/02 07:22:37;;;;;;;3.85;2.15;;;16.80;84.00;;;;;;5040215;28;20025;-75
2022/08/02 07:25:05;;;;;;;2.83;1.05;;;16.70;84.90;;;;;;5041052;28;20419;-79
2022/08/02 07:27:33;;;;;;;6.22;2.05;;;16.60;85.50;;;;;;5039693;28;20029;-75
2022/08/02 07:30:00;;;;;;;5.22;1.50;;;16.60;86.40;;;;;;5041297;28;20402;-77
2022/08/02 07:32:32;;;;;;;3.45;0.90;;;16.50;86.90;;;;;;5044121;28;20136;-76
2022/08/02 07:35:00;;;;;;;4.25;1.17;;;16.40;87.30;;;;;;5033832;28;20108;-73
2022/08/02 07:37:33;;;;;;;5.50;1.80;;;16.30;87.70;;;;;;5036622;28;20037;-74
2022/08/02 07:40:00;;;;;;;3.88;1.30;;;16.10;88.00;;;;;;5035415;28;20032;-73
2022/08/02 07:42:28;;;;;;;1.35;1.05;;;16.00;88.80;;;;;;5034397;28;20699;-73
2022/08/02 07:44:55;;;;;;;2.65;1.10;;;16.00;89.20;;;;;;5049838;28;20036;-75
2022/08/02 07:47:23;;;;;;;5.43;2.58;;;15.90;89.20;;;;;;5056997;28;20107;-75
2022/08/02 07:49:51;;;;;;;3.53;1.95;;;15.90;90.00;;;;;;5039704;28;20017;-76
2022/08/02 07:52:19;;;;;;;4.30;1.60;;;15.80;90.30;;;;;;5036104;28;20032;-74
2022/08/02 07:54:46;;;;;;;8.00;1.90;;;15.70;90.70;;;;;;5039150;28;20071;-76
2022/08/02 07:57:17;;;;;;;4.85;1.88;;;15.60;90.80;;;;;;5038665;28;20049;-75
2022/08/02 07:59:45;;;;;;;3.83;2.10;;;15.60;91.30;;;;;;5039517;28;20400;-73
2022/08/02 08:02:13;;;;;;;6.20;2.20;;;15.50;91.40;;;;;;5039577;28;20049;-75
2022/08/02 08:04:41;;;;;;;8.85;2.53;;;15.40;91.40;;;;;;5037482;28;20588;-75
2022/08/02 08:07:10;;;;;;;8.85;3.78;;;15.30;91.70;;;;;;5037378;28;20539;-83
2022/08/02 08:09:42;;;;;;;8.55;4.10;;;15.20;92.10;;;;;;5037105;28;20214;-77
2022/08/02 08:12:11;;;;;;;7.82;3.63;;;15.10;92.30;;;;;;5040384;28;20023;-75
2022/08/02 08:14:39;;;;;;;8.70;2.97;;;15.00;92.80;;;;;;5037734;28;20887;-76
2022/08/02 08:17:12;;;;;;;8.05;2.80;;;15.00;93.00;;;;;;5038780;28;20063;-78
2022/08/02 08:19:42;;;;;;;8.32;3.13;;;14.90;93.10;;;;;;5037365;28;20029;-75
2022/08/02 08:22:09;;;;;;;5.72;2.85;;;14.80;93.30;;;;;;5041101;28;20029;-76
2022/08/02 08:24:37;;;;;;;3.47;1.92;;;14.80;93.60;;;;;;5039683;28;20413;-73
2022/08/02 08:27:09;;;;;;;4.80;1.83;;;14.70;93.70;;;;;;5038968;28;20056;-76
2022/08/02 08:29:36;;;;;;;5.13;2.10;;;14.70;94.00;;;;;;5034381;28;20094;-74
2022/08/02 08:32:04;;;;;;;7.60;2.72;;;14.60;94.30;;;;;;5038533;28;20026;-75
2022/08/02 08:34:31;;;;;;;6.57;2.70;;;14.60;94.70;;;;;;5037704;28;20028;-72
2022/08/02 08:36:58;;;;;;;5.50;2.47;;;14.50;95.10;;;;;;5036769;28;20289;-77
2022/08/02 08:39:26;;;;;;;6.45;2.58;;;14.50;95.40;;;;;;5038671;28;20055;-72
2022/08/02 08:41:53;;;;;;;4.18;2.65;;;14.50;95.40;;;;;;5035579;28;20191;-74
2022/08/02 08:44:20;;;;;;;5.53;3.08;;;14.30;95.50;;;;;;5038787;28;20023;-73
2022/08/02 08:46:49;;;;;;;4.95;2.97;;;14.30;96.00;;;;;;5035893;28;20029;-77
2022/08/02 08:49:30;;;;;;;8.02;3.05;;;14.10;96.30;;;;;;5038870;28;20091;-72
2022/08/02 08:52:03;;;;;;;7.50;3.40;;;14.00;96.70;;;;;;5034876;28;20036;-73
2022/08/02 08:54:32;;;;;;;6.40;3.17;;;14.00;97.10;;;;;;5034700;28;20025;-71
2022/08/02 08:57:03;;;;;;;8.52;3.72;;;14.00;97.40;;;;;;5036211;28;20120;-74
2022/08/02 08:59:30;;;;;;;8.52;4.90;;;13.90;97.70;;;;;;5038543;28;20056;-71
2022/08/02 09:01:58;;;;;;;6.95;2.92;;;13.80;97.90;;;;;;5031671;28;20469;-73
2022/08/02 09:04:25;;;;;;;10.18;3.55;;;13.70;98.20;;;;;;5038020;28;20047;-75
2022/08/02 09:06:54;;;;;;;10.13;3.55;;;13.70;98.50;;;;;;5035029;28;20036;-72
2022/08/02 09:09:21;;;;;;;6.78;3.28;;;13.70;98.90;;;;;;5038620;28;20074;-73
2022/08/02 09:11:49;;;;;;;7.97;3.83;;;13.60;99.20;;;;;;5036954;28;20108;-78
2022/08/02 09:14:27;;;;;;;10.20;4.53;;;13.60;99.50;;;;;;5037588;28;20540;-72
2022/08/02 09:17:07;;;;;;;9.27;5.47;;;13.50;99.80;;;;;;5035830;28;20120;-73
2022/08/02 09:19:35;;;;;;;9.50;3.55;;;13.50;99.90;;;;;;5038410;28;20029;-76
2022/08/02 09:22:11;;;;;;;9.95;3.70;;;13.40;99.90;;;;;;5032974;28;20025;-77
2022/08/02 09:24:46;;;;;;;12.48;4.18;;;13.40;99.90;;;;;;5038176;28;20463;-76
2022/08/02 09:27:16;;;;;;;11.02;4.93;;;13.40;99.90;;;;;;5034094;28;20103;-71
2022/08/02 09:29:51;;;;;;;8.02;4.43;;;13.40;99.90;;;;;;5037534;28;20064;-74
2022/08/02 09:32:19;;;;;;;17.33;7.25;;;13.30;99.90;;;;;;5034897;28;20496;-76
2022/08/02 09:34:51;;;;;;;14.18;4.68;;;13.30;99.90;;;;;;5037346;28;20017;-73
2022/08/02 09:37:22;;;;;;;;;;;13.30;99.90;;;;;;5034471;28;20421;-73
2022/08/02 09:39:50;;;;;;;8.50;5.70;;;13.30;99.90;;;;;;5036598;28;20431;-78
2022/08/02 09:42:17;;;;;;;8.93;4.70;;;13.20;99.90;;;;;;5036129;28;20028;-80
2022/08/02 09:44:56;;;;;;;11.90;4.60;;;13.20;99.90;;;;;;5037034;28;20090;-81
2022/08/02 09:47:27;;;;;;;11.50;5.82;;;13.20;99.90;;;;;;5035499;28;20021;-73
2022/08/02 09:49:56;;;;;;;11.02;6.82;;;13.20;99.90;;;;;;5034700;28;20016;-72
2022/08/02 09:52:27;;;;;;;14.88;6.15;;;13.10;99.90;;;;;;5036323;28;20035;-72
2022/08/02 09:54:55;;;;;;;11.65;6.40;;;13.10;99.90;;;;;;5034442;28;20021;-72
2022/08/02 09:57:29;;;;;;;13.00;6.90;;;13.10;99.90;;;;;;5035177;28;20465;-75
2022/08/02 09:59:57;;;;;;;12.32;5.75;;;13.10;99.90;;;;;;5034122;28;20013;-78
2022/08/02 10:02:25;;;;;;;8.00;5.43;;;13.10;99.90;;;;;;5036710;28;20021;-73
2022/08/02 10:04:53;;;;;;;8.68;5.63;;;13.00;99.90;;;;;;5043830;28;20041;-78
2022/08/02 10:07:21;;;;;;;11.30;5.25;;;13.00;99.90;;;;;;5037500;28;20052;-79
2022/08/02 10:09:49;;;;;;;8.07;4.82;;;13.00;99.90;;;;;;5038040;28;20097;-71
2022/08/02 10:12:17;;;;;;;11.60;4.72;;;13.00;99.90;;;;;;5035042;28;20108;-74
2022/08/02 10:14:45;;;;;;;8.98;4.18;;;13.00;99.90;;;;;;5037948;28;20485;-81
2022/08/02 10:17:14;;;;;;;8.48;4.28;;;13.10;99.70;;;;;;5031948;28;20025;-71
2022/08/02 10:19:44;;;;;;;7.63;4.53;;;13.10;99.00;;;;;;5037734;28;20033;-76
2022/08/02 10:22:14;;;;;;;6.38;3.95;;;13.10;98.80;;;;;;5038815;28;20021;-73
2022/08/02 10:24:44;;;;;;;8.07;4.38;;;13.20;98.60;;;;;;5039915;28;20017;-72
2022/08/02 10:27:18;;;;;;;7.47;3.05;;;13.20;98.30;;;;;;5039575;28;20050;-75
2022/08/02 10:29:47;;;;;;;6.25;3.00;;;13.20;98.00;;;;;;5041923;28;20033;-75
2022/08/02 10:32:22;;;;;;;6.85;3.20;;;13.20;97.80;;;;;;5038599;28;20025;-72
2022/08/02 10:35:08;;;;;;;5.88;2.70;;;13.30;97.80;;;;;;5038841;28;20103;-74
2022/08/02 10:37:39;;;;;;;4.18;2.50;;;13.30;97.20;;;;;;5040193;28;20025;-75
2022/08/02 10:40:21;;;;;;;7.00;2.60;;;13.30;97.00;;;;;;5038831;28;20054;-74
2022/08/02 10:42:54;;;;;;;4.88;2.88;;;13.30;97.00;;;;;;5038959;28;20190;-78
2022/08/02 10:45:22;;;;;;;;;;;13.40;96.80;;;;;;5040034;28;20025;-76
2022/08/02 10:48:04;;;;;;;5.78;2.67;;;13.40;96.50;;;;;;5042476;28;19913;-75
2022/08/02 10:50:47;;;;;;;6.38;2.83;;;13.30;96.70;;;;;;5039121;28;20098;-77
2022/08/02 10:53:28;;;;;;;8.75;2.85;;;13.40;96.80;;;;;;5039899;28;20029;-73
2022/08/02 10:56:01;;;;;;;4.13;2.00;;;13.40;96.70;;;;;;5041903;28;20052;-78
2022/08/02 10:58:31;;;;;;;5.80;3.53;;;13.40;95.80;;;;;;5040209;28;20765;-75
2022/08/02 11:01:05;;;;;;;4.10;2.45;;;13.40;96.40;;;;;;5041367;28;20108;-76
2022/08/02 11:03:33;;;;;;;3.80;1.95;;;13.40;95.50;;;;;;5039516;28;20082;-77
2022/08/02 11:06:12;;;;;;;6.28;1.90;;;13.40;95.10;;;;;;5040906;28;20606;-70
2022/08/02 11:08:40;;;;;;;3.17;2.17;;;13.40;94.50;;;;;;5040258;28;20025;-74
2022/08/02 11:11:11;;;;;;;5.38;1.98;;;13.40;94.00;;;;;;5038086;28;20017;-76
2022/08/02 11:14:08;;;;;;;5.40;1.67;;;13.50;93.80;;;;;;5040167;28;20024;-73
2022/08/02 11:16:54;;;;;;;6.00;2.17;;;13.50;93.80;;;;;;5037549;28;20146;-74
2022/08/02 11:19:25;;;;;;;2.38;1.20;;;13.50;93.40;;;;;;5038223;28;20416;-70
2022/08/02 11:22:15;;;;;;;1.52;1.20;;;13.60;92.80;;;;;;5041275;28;20063;-75
2022/08/02 11:24:42;;;;;;;2.33;1.00;;;13.60;92.80;;;;;;5039368;28;20469;-71
2022/08/02 11:27:19;;;;;;;2.28;1.05;;;13.60;93.20;;;;;;5040961;28;20021;-75
2022/08/02 11:29:49;;;;;;;3.53;1.35;;;13.70;93.10;;;;;;5039127;28;20017;-77
2022/08/02 11:32:25;;;;;;;4.18;1.55;;;13.70;93.10;;;;;;5041031;28;20095;-74
2022/08/02 11:34:53;;;;;;;2.25;1.35;;;13.70;93.50;;;;;;5036789;28;20021;-73
2022/08/02 11:37:37;;;;;;;2.83;1.20;;;13.70;93.70;;;;;;5039750;28;20037;-72
2022/08/02 11:40:09;;;;;;;3.95;1.45;;;13.70;94.10;;;;;;5041536;28;20017;-74
2022/08/02 11:42:39;;;;;;;2.53;1.00;;;13.60;94.30;;;;;;5039606;28;20029;-74
2022/08/02 11:45:08;;;;;;;4.60;1.13;;;13.50;94.10;;;;;;5040691;28;20108;-75
2022/08/02 11:47:50;;;;;;;3.60;1.80;;;13.50;94.40;;;;;;5039844;28;20054;-77
2022/08/02 11:50:23;;;;;;;8.57;5.15;;;13.50;94.60;;;;;;5040540;28;20047;-73
2022/08/02 11:52:54;;;;;;;6.45;3.65;;;13.40;94.30;;;;;;5038934;28;20033;-73
2022/08/02 11:55:29;;;;;;;5.70;3.78;;;13.30;94.60;;;;;;5040636;28;20381;-71
2022/08/02 11:58:01;;;;;;;6.18;3.50;;;13.20;95.10;;;;;;5038532;28;20091;-72
2022/08/02 12:00:29;;;;;;;9.57;3.92;;;13.20;95.70;;;;;;5039946;28;20025;-72
2022/08/02 12:02:56;;;;;;;7.63;3.38;;;13.20;95.90;;;;;;5038705;28;20373;-73
2022/08/02 12:05:25;;;;;;;5.28;2.70;;;13.20;96.10;;;;;;5039395;28;20027;-73
2022/08/02 12:07:53;;;;;;;4.57;2.55;;;13.10;96.20;;;;;;5038502;28;20525;-73
2022/08/02 12:10:23;;;;;;;7.40;2.45;;;13.00;96.80;;;;;;5038380;28;20047;-72
2022/08/02 12:12:55;;;;;;;4.20;2.42;;;13.00;97.00;;;;;;5038430;28;20028;-73
2022/08/02 12:15:44;;;;;;;3.55;2.20;;;12.90;96.70;;;;;;5037199;28;20021;-74
2022/08/02 12:20:59;;;;;;;3.65;1.95;;;12.90;96.80;;;;;;5037256;28;20432;-76
2022/08/02 12:23:27;;;;;;;2.85;1.58;;;12.90;96.50;;;;;;5038568;28;20025;-72
2022/08/02 12:26:03;;;;;;;3.30;1.63;;;12.90;96.40;;;;;;5038586;28;20028;-73
2022/08/02 12:28:34;;;;;;;2.78;1.80;;;12.90;96.30;;;;;;5037389;28;20067;-72
2022/08/02 12:31:02;;;;;;;3.80;1.70;;;12.90;96.50;;;;;;5036822;28;20446;-73
2022/08/02 12:33:50;;;;;;;2.85;1.90;;;12.90;96.20;;;;;;5036631;28;20100;-73
2022/08/02 12:36:23;;;;;;;4.15;1.75;;;12.90;96.00;;;;;;5034383;28;20128;-73
2022/08/02 12:38:51;;;;;;;3.10;1.75;;;13.00;96.10;;;;;;5038477;28;20104;-73
2022/08/02 12:41:18;;;;;;;3.10;1.58;;;13.00;95.70;;;;;;5033742;28;20025;-75
2022/08/02 12:43:46;;;;;;;2.97;1.45;;;12.90;95.60;;;;;;5038717;28;20096;-72
2022/08/02 12:46:22;;;;;;;4.00;2.30;;;13.00;95.50;;;;;;5038013;28;20021;-72
2022/08/02 12:48:50;;;;;;;4.07;2.42;;;13.00;95.20;;;;;;5035663;28;20083;-76
2022/08/02 12:51:28;;;;;;;1.65;1.10;;;13.00;95.10;;;;;;5036973;28;20036;-75
2022/08/02 12:54:21;;;;;;;3.63;1.20;;;13.00;94.90;;;;;;5037810;28;20025;-71
2022/08/02 12:56:50;;;;;;;3.78;1.30;;;13.00;93.80;;;;;;5035841;28;20049;-77
2022/08/02 12:59:32;;;;;;;3.92;1.10;;;13.00;93.40;;;;;;5037929;28;20033;-75
2022/08/02 13:02:08;;;;;;;2.10;1.20;;;13.10;93.50;;;;;;5038491;28;20021;-72
2022/08/02 13:04:35;;;;;;;2.08;1.42;;;13.10;93.10;;;;;;5036850;28;20044;-75
2022/08/02 13:07:03;;;;;;;3.65;1.20;;;13.20;93.40;;;;;;5038753;28;20032;-73
2022/08/02 13:09:39;;;;;;;2.85;1.20;;;13.10;93.70;;;;;;5036945;28;20024;-72
2022/08/02 13:12:08;;;;;;;3.30;2.05;;;13.20;94.00;;;;;;5035334;28;20031;-74
2022/08/02 13:14:35;;;;;;;2.10;0.88;;;13.10;93.90;;;;;;5036746;28;20545;-75
2022/08/02 13:17:03;;;;;;;2.65;1.40;;;13.10;93.60;;;;;;5037604;28;20032;-72